createdAt,value
2019-03-04T00:00:28.140Z,13.01
2019-03-04T00:01:28.148Z,12.93
2019-03-04T00:02:28.115Z,12.93
2019-03-04T00:03:28.115Z,12.95
2019-03-04T00:04:28.112Z,12.96
2019-03-04T00:05:28.087Z,12.96
2019-03-04T00:06:28.072Z,13.02
2019-03-04T00:07:28.070Z,13.02
2019-03-04T00:08:28.097Z,12.99
2019-03-04T00:09:28.057Z,13.02
2019-03-04T00:10:28.033Z,13.01
2019-03-04T00:11:28.020Z,12.96
2019-03-04T00:12:28.013Z,12.96
2019-03-04T00:13:28.026Z,13.04
2019-03-04T00:14:27.985Z,13.08
2019-03-04T00:15:27.992Z,13.11
2019-03-04T00:16:27.982Z,13.06
2019-03-04T00:17:27.957Z,13.17
2019-03-04T00:18:27.974Z,13.09
2019-03-04T00:19:27.946Z,13.13
2019-03-04T00:20:27.961Z,13.04
2019-03-04T00:21:27.922Z,13.09
2019-03-04T00:22:27.901Z,13.06
2019-03-04T00:23:27.914Z,13.08
2019-03-04T00:24:27.882Z,13.06
2019-03-04T00:25:27.887Z,13.13
2019-03-04T00:26:27.892Z,13.14
2019-03-04T00:27:27.846Z,13.26
2019-03-04T00:28:27.835Z,13.23
2019-03-04T00:29:27.823Z,13.30
2019-03-04T00:30:27.828Z,13.29
2019-03-04T00:31:27.820Z,13.39
2019-03-04T00:32:27.789Z,13.38
2019-03-04T00:33:27.777Z,13.38
2019-03-04T00:34:27.768Z,13.39
2019-03-04T00:35:27.757Z,13.35
2019-03-04T00:36:27.765Z,13.38
2019-03-04T00:37:27.736Z,13.36
2019-03-04T00:38:27.732Z,13.39
2019-03-04T00:39:27.723Z,13.38
2019-03-04T00:40:27.699Z,13.40
2019-03-04T00:41:27.713Z,13.42
2019-03-04T00:42:27.711Z,13.35
2019-03-04T00:43:27.703Z,13.38
2019-03-04T00:44:27.725Z,13.39
2019-03-04T00:45:27.667Z,13.42
2019-03-04T00:46:27.637Z,13.35
2019-03-04T00:47:27.656Z,13.32
2019-03-04T00:48:27.612Z,13.47
2019-03-04T00:49:27.608Z,13.46
2019-03-04T00:50:27.596Z,13.47
2019-03-04T00:51:27.624Z,13.42
2019-03-04T00:52:27.596Z,13.42
2019-03-04T00:53:27.569Z,13.51
2019-03-04T00:54:27.550Z,13.45
2019-03-04T00:55:27.542Z,13.35
2019-03-04T00:56:27.537Z,13.38
2019-03-04T00:57:27.540Z,13.40
2019-03-04T00:58:27.505Z,13.29
2019-03-04T00:59:27.500Z,13.35
2019-03-04T01:00:27.483Z,13.38
2019-03-04T01:01:27.477Z,13.36
2019-03-04T01:02:27.626Z,13.35
2019-03-04T01:03:27.463Z,13.35
2019-03-04T01:04:27.450Z,13.30
2019-03-04T01:05:27.452Z,13.30
2019-03-04T01:06:27.467Z,13.21
2019-03-04T01:07:27.408Z,13.27
2019-03-04T01:08:27.423Z,13.27
2019-03-04T01:09:27.395Z,13.26
2019-03-04T01:10:27.375Z,13.26
2019-03-04T01:11:27.369Z,13.23
2019-03-04T01:12:27.375Z,13.35
2019-03-04T01:13:27.341Z,13.24
2019-03-04T01:14:27.330Z,13.27
2019-03-04T01:15:27.320Z,13.16
2019-03-04T01:16:27.329Z,13.16
2019-03-04T01:17:27.318Z,13.20
2019-03-04T01:18:27.296Z,13.19
2019-03-04T01:19:27.275Z,13.20
2019-03-04T01:20:27.270Z,13.20
2019-03-04T01:21:27.257Z,13.16
2019-03-04T01:22:27.270Z,13.14
2019-03-04T01:23:27.267Z,13.14
2019-03-04T01:24:27.232Z,13.05
2019-03-04T01:25:27.211Z,13.09
2019-03-04T01:26:27.201Z,13.14
2019-03-04T01:27:27.218Z,13.16
2019-03-04T01:28:27.180Z,13.09
2019-03-04T01:29:27.166Z,13.17
2019-03-04T01:30:27.158Z,13.17
2019-03-04T01:31:27.148Z,13.14
2019-03-04T01:32:27.178Z,13.14
2019-03-04T01:33:27.124Z,13.06
2019-03-04T01:34:27.150Z,13.13
2019-03-04T01:35:27.102Z,13.05
2019-03-04T01:36:27.090Z,13.16
2019-03-04T01:37:27.081Z,13.06
2019-03-04T01:38:27.087Z,13.13
2019-03-04T01:39:27.067Z,13.14
2019-03-04T01:40:27.080Z,13.05
2019-03-04T01:41:27.037Z,13.09
2019-03-04T01:42:27.029Z,13.16
2019-03-04T01:43:27.035Z,13.17
2019-03-04T01:44:27.007Z,13.09
2019-03-04T01:45:26.993Z,13.16
2019-03-04T01:46:26.985Z,13.11
2019-03-04T01:47:26.969Z,13.09
2019-03-04T01:48:27.008Z,13.06
2019-03-04T01:49:26.953Z,13.06
2019-03-04T01:50:26.937Z,13.08
2019-03-04T01:51:27.068Z,13.06
2019-03-04T01:52:26.914Z,13.05
2019-03-04T01:53:26.938Z,13.06
2019-03-04T01:54:28.171Z,13.11
2019-03-04T01:55:26.892Z,13.05
2019-03-04T01:56:26.889Z,13.05
2019-03-04T01:57:26.867Z,13.05
2019-03-04T01:58:26.869Z,13.06
2019-03-04T01:59:26.840Z,13.05
2019-03-04T02:00:26.834Z,12.99
2019-03-04T02:01:26.857Z,12.99
2019-03-04T02:02:26.814Z,13.01
2019-03-04T02:03:26.821Z,12.98
2019-03-04T02:04:26.783Z,12.98
2019-03-04T02:05:26.772Z,13.04
2019-03-04T02:06:26.779Z,12.91
2019-03-04T02:07:26.753Z,12.98
2019-03-04T02:08:26.743Z,13.02
2019-03-04T02:09:26.745Z,12.99
2019-03-04T02:10:26.720Z,13.05
2019-03-04T02:11:26.707Z,13.04
2019-03-04T02:12:26.695Z,12.99
2019-03-04T02:13:26.695Z,13.04
2019-03-04T02:14:26.692Z,13.05
2019-03-04T02:15:26.665Z,13.02
2019-03-04T02:16:26.654Z,13.05
2019-03-04T02:17:26.650Z,13.02
2019-03-04T02:18:26.629Z,13.05
2019-03-04T02:19:26.639Z,13.05
2019-03-04T02:20:26.627Z,13.06
2019-03-04T02:21:26.596Z,13.13
2019-03-04T02:22:26.589Z,13.06
2019-03-04T02:23:26.584Z,13.06
2019-03-04T02:24:26.589Z,13.08
2019-03-04T02:25:26.593Z,13.08
2019-03-04T02:26:26.554Z,13.06
2019-03-04T02:27:26.534Z,12.99
2019-03-04T02:28:26.521Z,13.09
2019-03-04T02:29:26.528Z,13.02
2019-03-04T02:30:26.520Z,13.06
2019-03-04T02:31:26.490Z,13.05
2019-03-04T02:32:26.499Z,13.09
2019-03-04T02:33:26.467Z,13.08
2019-03-04T02:34:26.455Z,13.08
2019-03-04T02:35:26.466Z,13.11
2019-03-04T02:36:26.441Z,13.14
2019-03-04T02:37:26.429Z,13.20
2019-03-04T02:38:26.454Z,13.21
2019-03-04T02:39:26.413Z,13.24
2019-03-04T02:40:26.407Z,13.19
2019-03-04T02:41:26.381Z,13.24
2019-03-04T02:42:26.379Z,13.26
2019-03-04T02:43:26.362Z,13.23
2019-03-04T02:44:26.354Z,13.24
2019-03-04T02:45:26.383Z,13.27
2019-03-04T02:46:26.324Z,13.30
2019-03-04T02:47:26.316Z,13.23
2019-03-04T02:48:26.301Z,13.20
2019-03-04T02:49:26.295Z,13.21
2019-03-04T02:50:26.351Z,13.29
2019-03-04T02:51:26.269Z,13.38
2019-03-04T02:52:26.287Z,13.32
2019-03-04T02:53:26.254Z,13.35
2019-03-04T02:54:26.246Z,13.35
2019-03-04T02:55:26.233Z,13.32
2019-03-04T02:56:26.233Z,13.35
2019-03-04T02:57:26.210Z,13.38
2019-03-04T02:58:26.192Z,13.36
2019-03-04T02:59:26.202Z,13.46
2019-03-04T03:00:26.173Z,13.43
2019-03-04T03:01:35.085Z,13.47
2019-03-04T03:02:26.153Z,13.55
2019-03-04T03:03:26.140Z,13.54
2019-03-04T03:04:26.125Z,13.47
2019-03-04T03:05:26.114Z,13.55
2019-03-04T03:06:26.124Z,13.51
2019-03-04T03:07:26.093Z,13.47
2019-03-04T03:08:26.086Z,13.54
2019-03-04T03:09:26.078Z,13.60
2019-03-04T03:10:26.060Z,13.51
2019-03-04T03:11:26.072Z,13.49
2019-03-04T03:12:26.060Z,13.53
2019-03-04T03:13:26.050Z,13.51
2019-03-04T03:14:26.019Z,13.55
2019-03-04T03:15:26.012Z,13.57
2019-03-04T03:16:26.029Z,13.57
2019-03-04T03:17:25.985Z,13.49
2019-03-04T03:18:25.975Z,13.55
2019-03-04T03:19:25.962Z,13.55
2019-03-04T03:20:25.952Z,13.47
2019-03-04T03:21:25.963Z,13.49
2019-03-04T03:22:25.931Z,13.47
2019-03-04T03:23:25.919Z,13.42
2019-03-04T03:24:25.905Z,13.43
2019-03-04T03:25:25.894Z,13.42
2019-03-04T03:26:25.906Z,13.39
2019-03-04T03:27:25.888Z,13.39
2019-03-04T03:28:25.866Z,13.36
2019-03-04T03:29:25.856Z,13.38
2019-03-04T03:30:25.843Z,13.38
2019-03-04T03:31:25.869Z,13.30
2019-03-04T03:32:25.821Z,13.26
2019-03-04T03:33:25.837Z,13.32
2019-03-04T03:34:25.822Z,13.24
2019-03-04T03:35:25.789Z,13.21
2019-03-04T03:36:25.799Z,13.19
2019-03-04T03:37:25.764Z,13.29
2019-03-04T03:38:25.754Z,13.24
2019-03-04T03:39:25.749Z,13.19
2019-03-04T03:40:25.753Z,13.16
2019-03-04T03:41:25.742Z,13.17
2019-03-04T03:42:25.715Z,13.14
2019-03-04T03:43:25.710Z,13.17
2019-03-04T03:44:25.692Z,13.19
2019-03-04T03:45:25.678Z,13.14
2019-03-04T03:46:25.689Z,13.20
2019-03-04T03:47:25.682Z,13.14
2019-03-04T03:48:25.661Z,13.13
2019-03-04T03:49:25.646Z,13.13
2019-03-04T03:50:25.631Z,13.16
2019-03-04T03:51:25.633Z,13.19
2019-03-04T03:52:25.605Z,13.17
2019-03-04T03:53:25.597Z,13.14
2019-03-04T03:54:25.674Z,13.19
2019-03-04T03:55:25.571Z,13.27
2019-03-04T03:56:25.586Z,13.26
2019-03-04T03:57:25.548Z,13.27
2019-03-04T03:58:25.645Z,13.23
2019-03-04T03:59:25.528Z,13.26
2019-03-04T04:00:25.515Z,13.30
2019-03-04T04:01:25.522Z,13.45
2019-03-04T04:02:25.495Z,13.38
2019-03-04T04:03:25.487Z,13.35
2019-03-04T04:04:25.480Z,13.36
2019-03-04T04:05:25.478Z,13.40
2019-03-04T04:06:25.475Z,13.42
2019-03-04T04:07:25.438Z,13.38
2019-03-04T04:08:25.445Z,13.40
2019-03-04T04:09:25.416Z,13.32
2019-03-04T04:10:25.410Z,13.42
2019-03-04T04:11:25.427Z,13.38
2019-03-04T04:12:25.387Z,13.38
2019-03-04T04:13:25.373Z,13.32
2019-03-04T04:14:25.373Z,13.35
2019-03-04T04:15:25.356Z,13.39
2019-03-04T04:16:25.418Z,13.38
2019-03-04T04:17:25.330Z,13.46
2019-03-04T04:18:25.320Z,13.47
2019-03-04T04:19:25.308Z,13.45
2019-03-04T04:20:25.298Z,13.49
2019-03-04T04:21:25.296Z,13.45
2019-03-04T04:22:25.295Z,13.49
2019-03-04T04:23:25.282Z,13.47
2019-03-04T04:24:25.255Z,13.51
2019-03-04T04:25:25.251Z,13.46
2019-03-04T04:26:25.252Z,13.53
2019-03-04T04:27:25.222Z,13.43
2019-03-04T04:28:25.216Z,13.42
2019-03-04T04:29:25.239Z,13.49
2019-03-04T04:30:25.188Z,13.47
2019-03-04T04:31:25.201Z,13.46
2019-03-04T04:32:25.181Z,13.46
2019-03-04T04:33:25.162Z,13.45
2019-03-04T04:34:25.176Z,13.38
2019-03-04T04:35:25.136Z,13.53
2019-03-04T04:36:25.152Z,13.42
2019-03-04T04:37:25.117Z,13.49
2019-03-04T04:38:25.102Z,13.46
2019-03-04T04:39:25.096Z,13.32
2019-03-04T04:40:25.084Z,13.42
2019-03-04T04:41:25.075Z,13.36
2019-03-04T04:42:25.078Z,13.47
2019-03-04T04:43:25.070Z,13.43
2019-03-04T04:44:25.037Z,13.42
2019-03-04T04:45:25.027Z,13.32
2019-03-04T04:46:25.023Z,13.38
2019-03-04T04:47:25.035Z,13.35
2019-03-04T04:48:24.993Z,13.35
2019-03-04T04:49:24.985Z,13.30
2019-03-04T04:50:24.977Z,13.20
2019-03-04T04:51:24.961Z,13.21
2019-03-04T04:52:24.977Z,13.23
2019-03-04T04:53:24.940Z,13.21
2019-03-04T04:54:24.946Z,13.24
2019-03-04T04:55:24.928Z,13.20
2019-03-04T04:56:24.915Z,13.23
2019-03-04T04:57:24.971Z,13.14
2019-03-04T04:58:24.889Z,13.19
2019-03-04T04:59:24.872Z,13.09
2019-03-04T05:00:24.876Z,13.06
2019-03-04T05:01:24.849Z,13.14
2019-03-04T05:02:24.861Z,13.08
2019-03-04T05:03:24.827Z,12.99
2019-03-04T05:04:24.829Z,13.02
2019-03-04T05:05:24.821Z,13.01
2019-03-04T05:06:24.796Z,13.01
2019-03-04T05:07:24.827Z,12.96
2019-03-04T05:08:24.774Z,12.93
2019-03-04T05:09:24.764Z,12.96
2019-03-04T05:10:24.753Z,12.91
2019-03-04T05:11:24.749Z,12.83
2019-03-04T05:12:24.756Z,12.77
2019-03-04T05:13:24.718Z,12.79
2019-03-04T05:14:24.716Z,12.84
2019-03-04T05:15:24.702Z,12.79
2019-03-04T05:16:24.686Z,12.77
2019-03-04T05:17:24.700Z,12.93
2019-03-04T05:18:24.683Z,12.81
2019-03-04T05:19:32.192Z,12.79
2019-03-04T05:20:24.659Z,12.83
2019-03-04T05:21:24.636Z,12.86
2019-03-04T05:22:24.621Z,12.76
2019-03-04T05:23:24.614Z,12.80
2019-03-04T05:24:24.601Z,12.80
2019-03-04T05:25:24.607Z,12.81
2019-03-04T05:26:24.587Z,12.80
2019-03-04T05:27:24.576Z,12.79
2019-03-04T05:28:24.567Z,12.81
2019-03-04T05:29:24.547Z,12.83
2019-03-04T05:30:24.552Z,12.79
2019-03-04T05:31:24.536Z,12.91
2019-03-04T05:32:24.512Z,12.95
2019-03-04T05:33:24.504Z,12.91
2019-03-04T05:34:24.491Z,12.99
2019-03-04T05:35:24.499Z,12.98
2019-03-04T05:36:24.476Z,12.95
2019-03-04T05:37:24.487Z,12.99
2019-03-04T05:38:24.447Z,12.95
2019-03-04T05:39:24.443Z,12.93
2019-03-04T05:40:24.459Z,12.91
2019-03-04T05:41:24.413Z,12.91
2019-03-04T05:42:24.625Z,12.95
2019-03-04T05:43:24.394Z,12.95
2019-03-04T05:44:24.379Z,12.91
2019-03-04T05:45:24.394Z,12.99
2019-03-04T05:46:24.363Z,13.06
2019-03-04T05:47:24.348Z,13.05
2019-03-04T05:48:24.337Z,13.11
2019-03-04T05:49:24.327Z,13.11
2019-03-04T05:50:24.339Z,13.14
2019-03-04T05:51:24.314Z,13.20
2019-03-04T05:52:24.294Z,13.16
2019-03-04T05:53:24.285Z,13.20
2019-03-04T05:54:24.270Z,13.19
2019-03-04T05:55:24.279Z,13.13
2019-03-04T05:56:24.248Z,13.09
2019-03-04T05:57:24.247Z,13.17
2019-03-04T05:58:24.229Z,13.24
2019-03-04T05:59:24.214Z,13.24
2019-03-04T06:00:24.230Z,13.27
2019-03-04T06:01:24.194Z,13.42
2019-03-04T06:02:24.187Z,13.36
2019-03-04T06:03:24.177Z,13.46
2019-03-04T06:04:24.173Z,13.40
2019-03-04T06:05:24.171Z,13.42
2019-03-04T06:06:24.142Z,13.46
2019-03-04T06:07:24.139Z,13.35
2019-03-04T06:08:24.127Z,13.40
2019-03-04T06:09:24.108Z,13.53
2019-03-04T06:10:24.145Z,13.47
2019-03-04T06:11:24.084Z,13.32
2019-03-04T06:12:24.073Z,13.46
2019-03-04T06:13:24.064Z,13.43
2019-03-04T06:14:24.055Z,13.39
2019-03-04T06:15:24.061Z,13.35
2019-03-04T06:16:24.042Z,13.38
2019-03-04T06:17:24.019Z,13.36
2019-03-04T06:18:24.011Z,13.38
2019-03-04T06:19:24.001Z,13.30
2019-03-04T06:20:23.990Z,13.40
2019-03-04T06:21:24.008Z,13.39
2019-03-04T06:22:23.983Z,13.38
2019-03-04T06:23:23.960Z,13.42
2019-03-04T06:24:23.948Z,12.72
2019-03-04T06:25:23.937Z,11.56
2019-03-04T06:26:23.943Z,11.09
2019-03-04T06:27:23.917Z,10.97
2019-03-04T06:28:23.906Z,10.60
2019-03-04T06:29:23.890Z,10.21
2019-03-04T06:30:23.911Z,9.98
2019-03-04T06:31:23.889Z,9.75
2019-03-04T06:32:23.858Z,9.52
2019-03-04T06:33:23.849Z,9.36
2019-03-04T06:34:23.836Z,9.30
2019-03-04T06:35:23.826Z,9.27
2019-03-04T06:36:23.849Z,9.24
2019-03-04T06:37:23.814Z,9.23
2019-03-04T06:38:23.794Z,9.22
2019-03-04T06:39:23.804Z,9.14
2019-03-04T06:40:23.771Z,9.14
2019-03-04T06:41:23.800Z,9.23
2019-03-04T06:42:23.749Z,9.37
2019-03-04T06:43:23.757Z,9.26
2019-03-04T06:44:23.731Z,9.26
2019-03-04T06:45:23.717Z,9.09
2019-03-04T06:46:23.706Z,9.08
2019-03-04T06:47:23.716Z,9.08
2019-03-04T06:48:23.705Z,9.14
2019-03-04T06:49:24.263Z,9.12
2019-03-04T06:50:23.664Z,9.01
2019-03-04T06:51:23.651Z,8.95
2019-03-04T06:52:23.658Z,8.88
2019-03-04T06:53:23.633Z,8.71
2019-03-04T06:54:23.623Z,8.57
2019-03-04T06:55:23.612Z,8.55
2019-03-04T06:56:23.607Z,8.52
2019-03-04T06:57:28.436Z,8.49
2019-03-04T06:58:24.585Z,8.47
2019-03-04T06:59:23.565Z,8.42
2019-03-04T07:00:23.566Z,8.46
2019-03-04T07:01:23.545Z,8.52
2019-03-04T07:02:23.553Z,8.53
2019-03-04T07:03:31.057Z,8.67
2019-03-04T07:04:23.513Z,8.78
2019-03-04T07:05:23.506Z,8.72
2019-03-04T07:06:23.501Z,8.65
2019-03-04T07:07:23.501Z,8.71
2019-03-04T07:08:23.470Z,8.77
2019-03-04T07:09:23.458Z,8.83
2019-03-04T07:10:23.449Z,8.86
2019-03-04T07:11:23.440Z,8.85
2019-03-04T07:12:23.449Z,8.95
2019-03-04T07:13:23.434Z,9.06
2019-03-04T07:14:23.405Z,9.04
2019-03-04T07:15:23.397Z,9.06
2019-03-04T07:16:23.390Z,9.12
2019-03-04T07:17:23.408Z,9.06
2019-03-04T07:18:23.489Z,9.06
2019-03-04T07:19:23.353Z,9.16
2019-03-04T07:20:23.344Z,9.29
2019-03-04T07:21:23.332Z,9.34
2019-03-04T07:22:23.324Z,9.32
2019-03-04T07:23:23.328Z,9.30
2019-03-04T07:24:23.321Z,9.27
2019-03-04T07:25:23.286Z,9.47
2019-03-04T07:26:23.274Z,9.51
2019-03-04T07:27:23.268Z,9.50
2019-03-04T07:28:23.258Z,9.50
2019-03-04T07:29:23.268Z,9.54
2019-03-04T07:30:23.266Z,9.51
2019-03-04T07:31:23.224Z,9.52
2019-03-04T07:32:23.217Z,9.54
2019-03-04T07:33:23.200Z,9.50
2019-03-04T07:34:23.222Z,9.45
2019-03-04T07:35:23.211Z,9.42
2019-03-04T07:36:23.170Z,9.48
2019-03-04T07:37:23.165Z,9.57
2019-03-04T07:38:23.151Z,9.67
2019-03-04T07:39:23.160Z,9.78
2019-03-04T07:40:23.130Z,9.84
2019-03-04T07:41:23.116Z,9.91
2019-03-04T07:42:23.114Z,9.87
2019-03-04T07:43:23.093Z,10.09
2019-03-04T07:44:23.101Z,10.01
2019-03-04T07:45:23.073Z,9.96
2019-03-04T07:46:23.062Z,9.98
2019-03-04T07:47:23.051Z,9.85
2019-03-04T07:48:23.044Z,9.84
2019-03-04T07:49:23.059Z,9.81
2019-03-04T07:50:23.021Z,9.80
2019-03-04T07:51:23.009Z,9.75
2019-03-04T07:52:23.000Z,9.84
2019-03-04T07:53:23.008Z,9.85
2019-03-04T07:54:22.975Z,9.84
2019-03-04T07:55:23.045Z,9.93
2019-03-04T07:56:22.958Z,9.85
2019-03-04T07:57:22.944Z,9.88
2019-03-04T07:58:22.938Z,9.85
2019-03-04T07:59:22.923Z,9.83
2019-03-04T08:00:22.928Z,9.93
2019-03-04T08:01:22.905Z,9.94
2019-03-04T08:02:30.423Z,9.96
2019-03-04T08:03:22.884Z,9.99
2019-03-04T08:04:22.869Z,10.10
2019-03-04T08:05:22.894Z,10.05
2019-03-04T08:06:22.844Z,10.09
2019-03-04T08:07:22.878Z,10.14
2019-03-04T08:08:22.821Z,10.21
2019-03-04T08:09:22.830Z,10.23
2019-03-04T08:10:22.810Z,10.24
2019-03-04T08:11:22.809Z,10.26
2019-03-04T08:12:22.779Z,10.27
2019-03-04T08:13:22.775Z,10.35
2019-03-04T08:14:22.759Z,10.31
2019-03-04T08:15:22.752Z,10.30
2019-03-04T08:16:22.760Z,10.30
2019-03-04T08:17:22.727Z,10.42
2019-03-04T08:18:22.717Z,10.31
2019-03-04T08:19:22.706Z,10.42
2019-03-04T08:20:22.698Z,10.43
2019-03-04T08:21:22.705Z,10.45
2019-03-04T08:22:22.671Z,10.46
2019-03-04T08:23:22.661Z,10.43
2019-03-04T08:24:22.703Z,10.45
2019-03-04T08:25:22.641Z,10.42
2019-03-04T08:26:22.654Z,10.41
2019-03-04T08:27:22.619Z,10.42
2019-03-04T08:28:22.610Z,10.39
2019-03-04T08:29:22.595Z,10.39
2019-03-04T08:30:22.587Z,10.49
2019-03-04T08:31:22.575Z,10.43
2019-03-04T08:32:22.587Z,10.41
2019-03-04T08:33:22.577Z,10.39
2019-03-04T08:34:30.731Z,10.38
2019-03-04T08:35:23.531Z,10.38
2019-03-04T08:36:22.521Z,10.49
2019-03-04T08:37:22.531Z,10.45
2019-03-04T08:38:22.498Z,10.45
2019-03-04T08:39:23.049Z,10.57
2019-03-04T08:40:22.483Z,10.58
2019-03-04T08:41:22.467Z,10.62
2019-03-04T08:42:22.454Z,10.68
2019-03-04T08:43:22.463Z,10.79
2019-03-04T08:44:22.436Z,10.86
2019-03-04T08:45:22.423Z,10.86
2019-03-04T08:46:22.418Z,10.87
2019-03-04T08:47:22.400Z,10.95
2019-03-04T08:48:22.414Z,11.00
2019-03-04T08:49:22.380Z,11.04
2019-03-04T08:50:22.369Z,11.04
2019-03-04T08:51:22.360Z,11.12
2019-03-04T08:52:22.353Z,11.27
2019-03-04T08:53:22.364Z,11.33
2019-03-04T08:54:22.324Z,11.61
2019-03-04T08:55:22.318Z,11.62
2019-03-04T08:56:22.304Z,11.85
2019-03-04T08:57:22.294Z,11.67
2019-03-04T08:58:22.297Z,11.70
2019-03-04T08:59:22.281Z,11.64
2019-03-04T09:00:22.281Z,11.99
2019-03-04T09:01:22.250Z,11.87
2019-03-04T09:02:22.262Z,11.70
2019-03-04T09:03:22.259Z,11.71
2019-03-04T09:04:22.218Z,11.56
2019-03-04T09:05:22.206Z,11.52
2019-03-04T09:06:22.205Z,11.43
2019-03-04T09:07:22.192Z,11.48
2019-03-04T09:08:22.256Z,11.43
2019-03-04T09:09:22.185Z,11.54
2019-03-04T09:10:22.155Z,11.45
2019-03-04T09:11:22.267Z,11.45
2019-03-04T09:12:22.136Z,11.37
2019-03-04T09:13:22.126Z,11.40
2019-03-04T09:14:22.185Z,11.38
2019-03-04T09:15:22.137Z,11.34
2019-03-04T09:16:22.088Z,11.41
2019-03-04T09:17:22.077Z,11.31
2019-03-04T09:18:22.073Z,11.36
2019-03-04T09:19:22.061Z,11.27
2019-03-04T09:20:22.074Z,11.31
2019-03-04T09:21:22.041Z,11.25
2019-03-04T09:22:22.026Z,11.33
2019-03-04T09:23:22.027Z,11.30
2019-03-04T09:24:22.026Z,11.34
2019-03-04T09:25:30.035Z,11.25
2019-03-04T09:26:23.051Z,11.34
2019-03-04T09:27:22.013Z,11.40
2019-03-04T09:28:21.972Z,11.45
2019-03-04T09:29:21.952Z,11.34
2019-03-04T09:30:21.962Z,11.34
2019-03-04T09:31:21.992Z,11.34
2019-03-04T09:32:21.916Z,11.31
2019-03-04T09:33:21.916Z,11.34
2019-03-04T09:34:21.900Z,11.37
2019-03-04T09:35:21.883Z,11.43
2019-03-04T09:36:21.906Z,11.49
2019-03-04T09:37:21.865Z,11.58
2019-03-04T09:38:21.851Z,11.64
2019-03-04T09:39:21.842Z,11.62
2019-03-04T09:40:21.877Z,11.70
2019-03-04T09:41:21.839Z,11.64
2019-03-04T09:42:21.824Z,11.71
2019-03-04T09:43:21.807Z,11.79
2019-03-04T09:44:21.784Z,11.71
2019-03-04T09:45:21.778Z,11.71
2019-03-04T09:46:21.785Z,11.61
2019-03-04T09:47:21.781Z,11.71
2019-03-04T09:48:21.741Z,11.71
2019-03-04T09:49:21.738Z,11.71
2019-03-04T09:50:21.736Z,11.80
2019-03-04T09:51:24.664Z,11.69
2019-03-04T09:52:21.704Z,11.73
2019-03-04T09:53:21.689Z,11.73
2019-03-04T09:54:21.689Z,11.74
2019-03-04T09:55:29.204Z,11.71
2019-03-04T09:56:21.674Z,11.73
2019-03-04T09:57:21.644Z,11.71
2019-03-04T09:58:21.639Z,11.73
2019-03-04T09:59:21.623Z,11.80
2019-03-04T10:00:21.612Z,11.85
2019-03-04T10:01:21.598Z,12.03
2019-03-04T10:02:21.629Z,12.05
2019-03-04T10:03:21.596Z,12.08
2019-03-04T10:04:21.587Z,11.99
2019-03-04T10:05:21.571Z,11.96
2019-03-04T10:06:21.546Z,12.04
2019-03-04T10:07:21.556Z,12.03
2019-03-04T10:08:21.534Z,12.18
2019-03-04T10:09:21.515Z,12.10
2019-03-04T10:10:21.525Z,12.23
2019-03-04T10:11:21.497Z,12.29
2019-03-04T10:12:21.500Z,12.47
2019-03-04T10:13:21.470Z,12.51
2019-03-04T10:14:21.459Z,12.41
2019-03-04T10:15:21.449Z,12.62
2019-03-04T10:16:21.446Z,12.99
2019-03-04T10:17:21.435Z,13.19
2019-03-04T10:18:21.440Z,13.09
2019-03-04T10:19:28.954Z,12.59
2019-03-04T10:20:29.957Z,12.96
2019-03-04T10:21:28.933Z,12.76
2019-03-04T10:22:28.928Z,12.50
2019-03-04T10:23:31.324Z,12.35
2019-03-04T10:24:28.901Z,12.41
2019-03-04T10:25:28.884Z,12.32
2019-03-04T10:26:28.869Z,12.44
2019-03-04T10:27:29.869Z,12.55
2019-03-04T10:28:29.950Z,12.55
2019-03-04T10:29:29.861Z,12.50
2019-03-04T10:30:28.824Z,12.43
2019-03-04T10:31:30.088Z,12.46
2019-03-04T10:32:28.808Z,12.43
2019-03-04T10:33:30.216Z,12.41
2019-03-04T10:34:21.260Z,12.35
2019-03-04T10:35:29.798Z,12.40
2019-03-04T10:36:28.771Z,12.66
2019-03-04T10:37:28.740Z,12.71
2019-03-04T10:38:28.755Z,12.63
2019-03-04T10:39:30.746Z,12.59
2019-03-04T10:40:28.749Z,12.51
2019-03-04T10:41:29.747Z,12.48
2019-03-04T10:42:31.181Z,12.44
2019-03-04T10:43:29.950Z,12.40
2019-03-04T10:44:37.552Z,12.21
2019-03-04T10:51:12.303Z,12.26
2019-03-04T10:52:19.816Z,12.30
2019-03-04T10:53:19.796Z,12.08
2019-03-04T10:54:12.251Z,12.10
2019-03-04T10:55:12.285Z,12.13
2019-03-04T10:56:12.228Z,12.10
2019-03-04T10:57:12.218Z,12.03
2019-03-04T10:58:12.216Z,12.08
2019-03-04T10:59:12.203Z,12.07
2019-03-04T11:00:12.212Z,12.14
2019-03-04T11:01:12.197Z,12.08
2019-03-04T11:02:12.166Z,12.17
2019-03-04T11:03:12.190Z,12.18
2019-03-04T11:04:12.143Z,12.13
2019-03-04T11:05:12.173Z,12.17
2019-03-04T11:06:12.147Z,12.23
2019-03-04T11:07:12.126Z,12.15
2019-03-04T11:08:12.195Z,12.11
2019-03-04T11:09:12.088Z,12.26
2019-03-04T11:10:12.083Z,12.22
2019-03-04T11:11:12.100Z,12.15
2019-03-04T11:12:14.088Z,12.21
2019-03-04T11:13:12.055Z,12.18
2019-03-04T11:14:12.067Z,12.08
2019-03-04T11:15:12.026Z,12.18
2019-03-04T11:16:12.038Z,12.17
2019-03-04T11:17:12.020Z,12.10
2019-03-04T11:18:12.009Z,12.18
2019-03-04T11:19:11.990Z,12.30
2019-03-04T11:20:11.983Z,12.22
2019-03-04T11:21:12.000Z,12.23
2019-03-04T11:22:11.950Z,12.23
2019-03-04T11:23:11.948Z,12.17
2019-03-04T11:24:11.925Z,12.10
2019-03-04T11:25:11.932Z,12.10
2019-03-04T11:26:11.906Z,12.00
2019-03-04T11:27:11.930Z,11.99
2019-03-04T11:28:11.931Z,12.05
2019-03-04T11:29:13.367Z,12.00
2019-03-04T11:30:11.864Z,12.05
2019-03-04T11:31:11.856Z,12.08
2019-03-04T11:32:11.858Z,12.11
2019-03-04T11:33:11.832Z,12.11
2019-03-04T11:34:11.814Z,12.10
2019-03-04T11:35:11.808Z,12.08
2019-03-04T11:36:11.800Z,12.11
2019-03-04T11:37:11.811Z,11.99
2019-03-04T11:38:11.771Z,11.99
2019-03-04T11:39:11.763Z,11.97
2019-03-04T11:40:11.790Z,11.95
2019-03-04T11:41:11.749Z,11.95
2019-03-04T11:42:11.753Z,11.85
2019-03-04T11:43:11.719Z,11.88
2019-03-04T11:44:11.707Z,11.79
2019-03-04T11:45:11.709Z,11.71
2019-03-04T11:46:11.718Z,11.59
2019-03-04T11:47:11.692Z,11.28
2019-03-04T11:48:11.666Z,10.20
2019-03-04T11:49:11.720Z,9.11
2019-03-04T11:50:11.640Z,8.49
2019-03-04T11:51:11.651Z,8.09
2019-03-04T11:52:11.655Z,7.77
2019-03-04T11:53:11.610Z,7.74
2019-03-04T11:54:11.598Z,7.57
2019-03-04T11:55:11.586Z,7.46
2019-03-04T11:56:11.574Z,7.37
2019-03-04T11:57:11.569Z,7.36
2019-03-04T11:58:11.572Z,7.44
2019-03-04T11:59:11.545Z,7.37
2019-03-04T12:00:11.544Z,7.31
2019-03-04T12:01:11.517Z,7.18
2019-03-04T12:02:11.507Z,7.13
2019-03-04T12:03:11.562Z,6.97
2019-03-04T12:04:11.516Z,6.99
2019-03-04T12:05:11.481Z,6.88
2019-03-04T12:06:11.489Z,6.83
2019-03-04T12:07:11.462Z,6.75
2019-03-04T12:08:11.522Z,6.68
2019-03-04T12:09:11.436Z,6.65
2019-03-04T12:10:11.486Z,6.63
2019-03-04T12:11:11.416Z,6.63
2019-03-04T12:12:11.473Z,6.57
2019-03-04T12:13:11.414Z,6.50
2019-03-04T12:14:11.382Z,6.55
2019-03-04T12:15:11.375Z,6.63
2019-03-04T12:16:11.359Z,6.57
2019-03-04T12:17:11.345Z,6.60
2019-03-04T12:18:11.400Z,6.57
2019-03-04T12:19:11.321Z,6.61
2019-03-04T12:20:11.321Z,6.65
2019-03-04T12:21:11.300Z,6.71
2019-03-04T12:22:11.306Z,6.67
2019-03-04T12:23:11.290Z,6.67
2019-03-04T12:24:11.383Z,6.68
2019-03-04T12:25:11.260Z,6.70
2019-03-04T12:26:11.268Z,6.70
2019-03-04T12:27:11.248Z,6.71
2019-03-04T12:28:11.230Z,6.79
2019-03-04T12:29:11.237Z,6.68
2019-03-04T12:30:11.224Z,6.79
2019-03-04T12:31:11.194Z,6.86
2019-03-04T12:32:11.183Z,6.79
2019-03-04T12:33:11.177Z,6.79
2019-03-04T12:34:11.180Z,6.88
2019-03-04T12:35:11.158Z,6.89
2019-03-04T12:36:11.181Z,6.88
2019-03-04T12:37:11.132Z,6.88
2019-03-04T12:38:11.122Z,6.89
2019-03-04T12:39:11.148Z,7.03
2019-03-04T12:40:11.117Z,6.99
2019-03-04T12:41:11.085Z,6.96
2019-03-04T12:42:11.078Z,7.00
2019-03-04T12:43:11.068Z,7.06
2019-03-04T12:44:11.069Z,7.06
2019-03-04T12:45:11.062Z,7.21
2019-03-04T12:46:11.049Z,7.19
2019-03-04T12:47:11.057Z,7.21
2019-03-04T12:48:11.015Z,7.24
2019-03-04T12:49:11.001Z,7.22
2019-03-04T12:50:11.042Z,7.29
2019-03-04T12:51:10.977Z,7.29
2019-03-04T12:52:10.970Z,7.40
2019-03-04T12:53:10.959Z,7.40
2019-03-04T12:54:10.954Z,7.36
2019-03-04T12:55:10.940Z,7.50
2019-03-04T12:56:10.943Z,7.55
2019-03-04T12:57:10.916Z,7.57
2019-03-04T12:58:10.912Z,7.58
2019-03-04T12:59:10.895Z,7.81
2019-03-04T13:00:10.918Z,7.78
2019-03-04T13:01:10.900Z,7.92
2019-03-04T13:02:10.863Z,7.77
2019-03-04T13:03:10.860Z,7.91
2019-03-04T13:04:10.840Z,7.88